sensor_id;sensor_type;location;lat;lon;timestamp;P1;durP1;ratioP1;P2;durP2;ratioP2
37459;SDS011;23318;50.966;5.284;2023-02-28T00:01:22;13.27;;;4.32;;
37459;SDS011;23318;50.966;5.284;2023-02-28T00:03:47;7.25;;;3.90;;
37459;SDS011;23318;50.966;5.284;2023-02-28T00:06:13;10.57;;;4.30;;
37459;SDS011;23318;50.966;5.284;2023-02-28T00:08:39;11.30;;;4.25;;
37459;SDS011;23318;50.966;5.284;2023-02-28T00:11:06;7.63;;;4.20;;
37459;SDS011;23318;50.966;5.284;2023-02-28T00:13:33;7.82;;;4.13;;
37459;SDS011;23318;50.966;5.284;2023-02-28T00:16:19;12.93;;;4.30;;
37459;SDS011;23318;50.966;5.284;2023-02-28T00:18:46;12.73;;;3.85;;
37459;SDS011;23318;50.966;5.284;2023-02-28T00:21:12;10.60;;;4.43;;
37459;SDS011;23318;50.966;5.284;2023-02-28T00:23:38;10.32;;;4.82;;
37459;SDS011;23318;50.966;5.284;2023-02-28T00:26:04;7.53;;;4.28;;
37459;SDS011;23318;50.966;5.284;2023-02-28T00:28:29;7.82;;;4.32;;
37459;SDS011;23318;50.966;5.284;2023-02-28T00:30:55;8.02;;;3.97;;
37459;SDS011;23318;50.966;5.284;2023-02-28T00:33:22;11.43;;;3.90;;
37459;SDS011;23318;50.966;5.284;2023-02-28T00:35:48;6.95;;;4.35;;
37459;SDS011;23318;50.966;5.284;2023-02-28T00:38:14;10.18;;;4.28;;
37459;SDS011;23318;50.966;5.284;2023-02-28T00:40:41;15.10;;;4.43;;
37459;SDS011;23318;50.966;5.284;2023-02-28T00:43:07;11.35;;;4.32;;
37459;SDS011;23318;50.966;5.284;2023-02-28T00:45:32;6.47;;;4.03;;
37459;SDS011;23318;50.966;5.284;2023-02-28T00:47:58;13.00;;;4.43;;
37459;SDS011;23318;50.966;5.284;2023-02-28T00:50:24;8.50;;;4.72;;
37459;SDS011;23318;50.966;5.284;2023-02-28T00:52:50;11.60;;;4.63;;
37459;SDS011;23318;50.966;5.284;2023-02-28T00:55:15;7.43;;;4.80;;
37459;SDS011;23318;50.966;5.284;2023-02-28T00:57:41;9.82;;;4.15;;
37459;SDS011;23318;50.966;5.284;2023-02-28T01:00:07;8.00;;;4.32;;
37459;SDS011;23318;50.966;5.284;2023-02-28T01:02:34;9.43;;;4.80;;
37459;SDS011;23318;50.966;5.284;2023-02-28T01:04:59;10.30;;;4.07;;
37459;SDS011;23318;50.966;5.284;2023-02-28T01:07:25;8.07;;;4.65;;
37459;SDS011;23318;50.966;5.284;2023-02-28T01:09:51;8.90;;;4.22;;
37459;SDS011;23318;50.966;5.284;2023-02-28T01:12:16;7.50;;;4.45;;
37459;SDS011;23318;50.966;5.284;2023-02-28T01:14:42;10.30;;;4.80;;
37459;SDS011;23318;50.966;5.284;2023-02-28T01:17:08;9.05;;;4.80;;
37459;SDS011;23318;50.966;5.284;2023-02-28T01:19:34;13.10;;;5.40;;
37459;SDS011;23318;50.966;5.284;2023-02-28T01:22:01;7.85;;;4.50;;
37459;SDS011;23318;50.966;5.284;2023-02-28T01:24:28;10.63;;;4.43;;
37459;SDS011;23318;50.966;5.284;2023-02-28T01:26:54;8.32;;;4.60;;
37459;SDS011;23318;50.966;5.284;2023-02-28T01:29:20;11.32;;;4.80;;
37459;SDS011;23318;50.966;5.284;2023-02-28T01:31:45;12.23;;;4.88;;
37459;SDS011;23318;50.966;5.284;2023-02-28T01:34:11;11.05;;;5.55;;
37459;SDS011;23318;50.966;5.284;2023-02-28T01:36:37;9.15;;;4.95;;
37459;SDS011;23318;50.966;5.284;2023-02-28T01:39:03;9.25;;;5.10;;
37459;SDS011;23318;50.966;5.284;2023-02-28T01:41:30;13.93;;;4.80;;
37459;SDS011;23318;50.966;5.284;2023-02-28T01:43:59;11.63;;;5.05;;
37459;SDS011;23318;50.966;5.284;2023-02-28T01:46:31;8.15;;;4.65;;
37459;SDS011;23318;50.966;5.284;2023-02-28T01:49:09;10.90;;;5.00;;
37459;SDS011;23318;50.966;5.284;2023-02-28T01:51:49;9.15;;;4.63;;
37459;SDS011;23318;50.966;5.284;2023-02-28T01:54:18;11.32;;;4.90;;
37459;SDS011;23318;50.966;5.284;2023-02-28T01:56:57;13.95;;;4.82;;
37459;SDS011;23318;50.966;5.284;2023-02-28T01:59:37;9.73;;;5.13;;
37459;SDS011;23318;50.966;5.284;2023-02-28T02:02:11;10.90;;;5.88;;
37459;SDS011;23318;50.966;5.284;2023-02-28T02:04:55;10.80;;;5.05;;
37459;SDS011;23318;50.966;5.284;2023-02-28T02:07:37;9.65;;;4.75;;
37459;SDS011;23318;50.966;5.284;2023-02-28T02:10:12;8.82;;;5.28;;
37459;SDS011;23318;50.966;5.284;2023-02-28T02:12:55;9.80;;;5.07;;
37459;SDS011;23318;50.966;5.284;2023-02-28T02:18:24;8.80;;;5.03;;
37459;SDS011;23318;50.966;5.284;2023-02-28T02:36:48;7.70;;;4.60;;
37459;SDS011;23318;50.966;5.284;2023-02-28T02:45:11;12.77;;;5.63;;
37459;SDS011;23318;50.966;5.284;2023-02-28T02:47:44;12.35;;;5.43;;
37459;SDS011;23318;50.966;5.284;2023-02-28T02:50:12;8.68;;;5.32;;
37459;SDS011;23318;50.966;5.284;2023-02-28T02:52:44;12.35;;;5.65;;
37459;SDS011;23318;50.966;5.284;2023-02-28T02:55:14;13.98;;;5.88;;
37459;SDS011;23318;50.966;5.284;2023-02-28T02:58:02;14.05;;;5.93;;
37459;SDS011;23318;50.966;5.284;2023-02-28T03:00:32;13.90;;;6.22;;
37459;SDS011;23318;50.966;5.284;2023-02-28T03:03:02;11.10;;;5.65;;
37459;SDS011;23318;50.966;5.284;2023-02-28T03:05:48;10.23;;;5.50;;
37459;SDS011;23318;50.966;5.284;2023-02-28T03:08:15;10.70;;;5.97;;
37459;SDS011;23318;50.966;5.284;2023-02-28T03:10:42;9.82;;;5.13;;
37459;SDS011;23318;50.966;5.284;2023-02-28T03:18:54;9.63;;;5.55;;
37459;SDS011;23318;50.966;5.284;2023-02-28T03:21:30;11.27;;;5.97;;
37459;SDS011;23318;50.966;5.284;2023-02-28T03:24:10;10.35;;;5.65;;
37459;SDS011;23318;50.966;5.284;2023-02-28T03:26:43;10.77;;;5.40;;
37459;SDS011;23318;50.966;5.284;2023-02-28T03:34:17;12.27;;;6.07;;
37459;SDS011;23318;50.966;5.284;2023-02-28T03:36:52;13.50;;;6.13;;
37459;SDS011;23318;50.966;5.284;2023-02-28T03:39:24;11.48;;;6.40;;
37459;SDS011;23318;50.966;5.284;2023-02-28T03:44:26;11.27;;;6.65;;
37459;SDS011;23318;50.966;5.284;2023-02-28T03:47:02;16.17;;;6.10;;
37459;SDS011;23318;50.966;5.284;2023-02-28T03:49:43;11.60;;;6.55;;
37459;SDS011;23318;50.966;5.284;2023-02-28T03:52:13;12.80;;;5.70;;
37459;SDS011;23318;50.966;5.284;2023-02-28T03:54:46;12.15;;;6.15;;
37459;SDS011;23318;50.966;5.284;2023-02-28T03:57:20;10.80;;;6.72;;
37459;SDS011;23318;50.966;5.284;2023-02-28T03:59:54;13.52;;;6.30;;
37459;SDS011;23318;50.966;5.284;2023-02-28T04:02:23;11.82;;;5.93;;
37459;SDS011;23318;50.966;5.284;2023-02-28T04:04:49;10.93;;;6.60;;
37459;SDS011;23318;50.966;5.284;2023-02-28T04:07:16;11.02;;;6.15;;
37459;SDS011;23318;50.966;5.284;2023-02-28T04:09:42;14.00;;;7.50;;
37459;SDS011;23318;50.966;5.284;2023-02-28T04:12:08;12.35;;;6.85;;
37459;SDS011;23318;50.966;5.284;2023-02-28T04:14:34;15.57;;;6.63;;
37459;SDS011;23318;50.966;5.284;2023-02-28T04:17:00;12.65;;;6.38;;
37459;SDS011;23318;50.966;5.284;2023-02-28T04:19:26;11.27;;;6.22;;
37459;SDS011;23318;50.966;5.284;2023-02-28T04:21:52;13.02;;;6.38;;
37459;SDS011;23318;50.966;5.284;2023-02-28T04:24:20;11.75;;;6.63;;
37459;SDS011;23318;50.966;5.284;2023-02-28T04:26:51;12.32;;;6.78;;
37459;SDS011;23318;50.966;5.284;2023-02-28T04:29:20;16.38;;;7.05;;
37459;SDS011;23318;50.966;5.284;2023-02-28T04:31:48;13.50;;;6.28;;
37459;SDS011;23318;50.966;5.284;2023-02-28T04:34:14;16.60;;;6.85;;
37459;SDS011;23318;50.966;5.284;2023-02-28T04:36:40;15.90;;;6.60;;
37459;SDS011;23318;50.966;5.284;2023-02-28T04:39:05;13.68;;;6.35;;
37459;SDS011;23318;50.966;5.284;2023-02-28T04:41:31;9.25;;;6.03;;
37459;SDS011;23318;50.966;5.284;2023-02-28T04:43:57;12.07;;;6.97;;
37459;SDS011;23318;50.966;5.284;2023-02-28T04:46:22;10.93;;;6.80;;
37459;SDS011;23318;50.966;5.284;2023-02-28T04:48:48;12.23;;;5.57;;
37459;SDS011;23318;50.966;5.284;2023-02-28T04:51:15;11.77;;;6.90;;
37459;SDS011;23318;50.966;5.284;2023-02-28T04:53:43;12.43;;;6.22;;
37459;SDS011;23318;50.966;5.284;2023-02-28T04:56:13;11.75;;;6.60;;
37459;SDS011;23318;50.966;5.284;2023-02-28T04:58:40;11.57;;;7.05;;
37459;SDS011;23318;50.966;5.284;2023-02-28T05:01:17;12.68;;;6.20;;
37459;SDS011;23318;50.966;5.284;2023-02-28T05:03:48;16.92;;;7.35;;
37459;SDS011;23318;50.966;5.284;2023-02-28T05:06:14;15.07;;;6.43;;
37459;SDS011;23318;50.966;5.284;2023-02-28T05:08:40;11.23;;;6.05;;
37459;SDS011;23318;50.966;5.284;2023-02-28T05:11:07;13.18;;;7.00;;
37459;SDS011;23318;50.966;5.284;2023-02-28T05:13:44;17.45;;;6.72;;
37459;SDS011;23318;50.966;5.284;2023-02-28T05:16:10;16.00;;;6.68;;
37459;SDS011;23318;50.966;5.284;2023-02-28T05:18:36;13.15;;;6.60;;
37459;SDS011;23318;50.966;5.284;2023-02-28T05:21:02;12.18;;;7.18;;
37459;SDS011;23318;50.966;5.284;2023-02-28T05:23:28;14.93;;;7.35;;
37459;SDS011;23318;50.966;5.284;2023-02-28T05:25:53;12.55;;;6.60;;
37459;SDS011;23318;50.966;5.284;2023-02-28T05:28:20;12.68;;;6.65;;
37459;SDS011;23318;50.966;5.284;2023-02-28T05:30:46;17.00;;;7.38;;
37459;SDS011;23318;50.966;5.284;2023-02-28T05:33:12;15.20;;;7.20;;
37459;SDS011;23318;50.966;5.284;2023-02-28T05:35:41;13.95;;;7.18;;
37459;SDS011;23318;50.966;5.284;2023-02-28T05:38:09;10.65;;;6.82;;
37459;SDS011;23318;50.966;5.284;2023-02-28T05:40:35;10.65;;;6.78;;
37459;SDS011;23318;50.966;5.284;2023-02-28T05:43:04;13.68;;;6.78;;
37459;SDS011;23318;50.966;5.284;2023-02-28T05:45:30;16.10;;;7.60;;
37459;SDS011;23318;50.966;5.284;2023-02-28T05:47:56;16.27;;;7.43;;
37459;SDS011;23318;50.966;5.284;2023-02-28T05:50:21;14.75;;;7.88;;
37459;SDS011;23318;50.966;5.284;2023-02-28T05:52:50;20.05;;;8.50;;
37459;SDS011;23318;50.966;5.284;2023-02-28T05:55:17;22.33;;;7.55;;
37459;SDS011;23318;50.966;5.284;2023-02-28T05:57:43;13.38;;;7.18;;
37459;SDS011;23318;50.966;5.284;2023-02-28T06:00:09;15.05;;;8.38;;
37459;SDS011;23318;50.966;5.284;2023-02-28T06:02:36;17.17;;;8.70;;
37459;SDS011;23318;50.966;5.284;2023-02-28T06:05:03;16.10;;;8.70;;
37459;SDS011;23318;50.966;5.284;2023-02-28T06:07:29;17.70;;;9.13;;
37459;SDS011;23318;50.966;5.284;2023-02-28T06:09:55;15.70;;;9.05;;
37459;SDS011;23318;50.966;5.284;2023-02-28T06:12:20;17.77;;;10.15;;
37459;SDS011;23318;50.966;5.284;2023-02-28T06:14:46;21.67;;;12.10;;
37459;SDS011;23318;50.966;5.284;2023-02-28T06:17:12;20.95;;;11.80;;
37459;SDS011;23318;50.966;5.284;2023-02-28T06:19:38;26.88;;;11.73;;
37459;SDS011;23318;50.966;5.284;2023-02-28T06:22:04;21.15;;;10.00;;
37459;SDS011;23318;50.966;5.284;2023-02-28T06:24:30;27.58;;;13.23;;
37459;SDS011;23318;50.966;5.284;2023-02-28T06:26:56;19.35;;;11.50;;
37459;SDS011;23318;50.966;5.284;2023-02-28T06:29:24;21.55;;;10.25;;
37459;SDS011;23318;50.966;5.284;2023-02-28T06:31:50;20.23;;;12.80;;
37459;SDS011;23318;50.966;5.284;2023-02-28T06:34:16;24.05;;;14.07;;
37459;SDS011;23318;50.966;5.284;2023-02-28T06:36:42;16.95;;;11.10;;
37459;SDS011;23318;50.966;5.284;2023-02-28T06:39:08;24.80;;;13.98;;
37459;SDS011;23318;50.966;5.284;2023-02-28T06:41:34;17.92;;;11.85;;
37459;SDS011;23318;50.966;5.284;2023-02-28T06:44:03;29.17;;;15.63;;
37459;SDS011;23318;50.966;5.284;2023-02-28T06:46:31;21.15;;;11.70;;
37459;SDS011;23318;50.966;5.284;2023-02-28T06:48:57;18.08;;;9.07;;
37459;SDS011;23318;50.966;5.284;2023-02-28T06:51:22;21.05;;;12.63;;
37459;SDS011;23318;50.966;5.284;2023-02-28T06:53:49;22.05;;;12.30;;
37459;SDS011;23318;50.966;5.284;2023-02-28T06:56:16;22.17;;;9.93;;
37459;SDS011;23318;50.966;5.284;2023-02-28T06:58:45;15.98;;;9.27;;
37459;SDS011;23318;50.966;5.284;2023-02-28T07:01:15;18.05;;;9.52;;
37459;SDS011;23318;50.966;5.284;2023-02-28T07:03:41;18.60;;;9.23;;
37459;SDS011;23318;50.966;5.284;2023-02-28T07:06:07;17.27;;;8.93;;
37459;SDS011;23318;50.966;5.284;2023-02-28T07:08:33;16.23;;;9.50;;
37459;SDS011;23318;50.966;5.284;2023-02-28T07:10:59;20.23;;;8.68;;
37459;SDS011;23318;50.966;5.284;2023-02-28T07:13:25;19.20;;;8.77;;
37459;SDS011;23318;50.966;5.284;2023-02-28T07:18:24;17.67;;;8.40;;
37459;SDS011;23318;50.966;5.284;2023-02-28T07:20:51;19.17;;;7.88;;
37459;SDS011;23318;50.966;5.284;2023-02-28T07:23:17;16.13;;;8.40;;
37459;SDS011;23318;50.966;5.284;2023-02-28T07:25:43;20.15;;;9.27;;
37459;SDS011;23318;50.966;5.284;2023-02-28T07:28:10;13.55;;;9.55;;
37459;SDS011;23318;50.966;5.284;2023-02-28T07:30:36;16.70;;;10.70;;
37459;SDS011;23318;50.966;5.284;2023-02-28T07:33:03;17.23;;;9.27;;
37459;SDS011;23318;50.966;5.284;2023-02-28T07:35:28;21.23;;;11.80;;
37459;SDS011;23318;50.966;5.284;2023-02-28T07:37:54;18.42;;;8.45;;
37459;SDS011;23318;50.966;5.284;2023-02-28T07:40:21;16.33;;;7.95;;
37459;SDS011;23318;50.966;5.284;2023-02-28T07:42:47;20.45;;;7.55;;
37459;SDS011;23318;50.966;5.284;2023-02-28T07:45:13;17.58;;;7.78;;
37459;SDS011;23318;50.966;5.284;2023-02-28T07:47:39;16.95;;;7.63;;
37459;SDS011;23318;50.966;5.284;2023-02-28T07:50:07;11.02;;;6.90;;
37459;SDS011;23318;50.966;5.284;2023-02-28T07:52:35;15.10;;;7.10;;
37459;SDS011;23318;50.966;5.284;2023-02-28T07:55:01;12.38;;;6.95;;
37459;SDS011;23318;50.966;5.284;2023-02-28T07:57:27;13.38;;;6.68;;
37459;SDS011;23318;50.966;5.284;2023-02-28T07:59:53;8.48;;;5.57;;
37459;SDS011;23318;50.966;5.284;2023-02-28T08:02:19;10.43;;;6.07;;
37459;SDS011;23318;50.966;5.284;2023-02-28T08:04:45;15.07;;;6.40;;
37459;SDS011;23318;50.966;5.284;2023-02-28T08:07:12;13.52;;;5.95;;
37459;SDS011;23318;50.966;5.284;2023-02-28T08:09:38;8.02;;;5.15;;
37459;SDS011;23318;50.966;5.284;2023-02-28T08:12:05;11.52;;;5.55;;
37459;SDS011;23318;50.966;5.284;2023-02-28T08:14:31;14.20;;;6.07;;
37459;SDS011;23318;50.966;5.284;2023-02-28T08:16:57;13.27;;;5.93;;
37459;SDS011;23318;50.966;5.284;2023-02-28T08:19:23;16.67;;;8.00;;
37459;SDS011;23318;50.966;5.284;2023-02-28T08:21:49;11.55;;;5.25;;
37459;SDS011;23318;50.966;5.284;2023-02-28T08:24:14;8.20;;;5.30;;
37459;SDS011;23318;50.966;5.284;2023-02-28T08:26:40;7.78;;;4.75;;
37459;SDS011;23318;50.966;5.284;2023-02-28T08:29:06;10.60;;;5.45;;
37459;SDS011;23318;50.966;5.284;2023-02-28T08:31:31;12.23;;;5.95;;
37459;SDS011;23318;50.966;5.284;2023-02-28T08:33:57;14.52;;;5.18;;
37459;SDS011;23318;50.966;5.284;2023-02-28T08:36:24;6.68;;;4.85;;
37459;SDS011;23318;50.966;5.284;2023-02-28T08:38:51;13.82;;;5.22;;
37459;SDS011;23318;50.966;5.284;2023-02-28T08:41:17;9.00;;;5.25;;
37459;SDS011;23318;50.966;5.284;2023-02-28T08:43:43;11.23;;;5.00;;
37459;SDS011;23318;50.966;5.284;2023-02-28T08:46:11;9.35;;;4.82;;
37459;SDS011;23318;50.966;5.284;2023-02-28T08:48:38;7.70;;;4.63;;
37459;SDS011;23318;50.966;5.284;2023-02-28T08:51:05;9.93;;;4.68;;
37459;SDS011;23318;50.966;5.284;2023-02-28T08:53:34;10.32;;;5.05;;
37459;SDS011;23318;50.966;5.284;2023-02-28T08:56:03;11.18;;;4.97;;
37459;SDS011;23318;50.966;5.284;2023-02-28T08:58:30;12.13;;;5.35;;
37459;SDS011;23318;50.966;5.284;2023-02-28T09:00:56;6.65;;;4.22;;
37459;SDS011;23318;50.966;5.284;2023-02-28T09:03:22;6.85;;;4.28;;
37459;SDS011;23318;50.966;5.284;2023-02-28T09:05:55;11.85;;;4.68;;
37459;SDS011;23318;50.966;5.284;2023-02-28T09:08:28;9.25;;;4.72;;
37459;SDS011;23318;50.966;5.284;2023-02-28T09:10:55;5.20;;;3.35;;
37459;SDS011;23318;50.966;5.284;2023-02-28T09:13:23;3.88;;;2.97;;
37459;SDS011;23318;50.966;5.284;2023-02-28T09:15:49;4.93;;;3.38;;
37459;SDS011;23318;50.966;5.284;2023-02-28T09:18:15;5.15;;;2.85;;
37459;SDS011;23318;50.966;5.284;2023-02-28T09:20:41;6.13;;;3.38;;
37459;SDS011;23318;50.966;5.284;2023-02-28T09:23:09;9.10;;;2.90;;
37459;SDS011;23318;50.966;5.284;2023-02-28T09:25:36;5.20;;;3.20;;
37459;SDS011;23318;50.966;5.284;2023-02-28T09:28:02;4.97;;;2.80;;
37459;SDS011;23318;50.966;5.284;2023-02-28T09:30:29;7.47;;;3.00;;
37459;SDS011;23318;50.966;5.284;2023-02-28T09:32:55;4.68;;;2.60;;
37459;SDS011;23318;50.966;5.284;2023-02-28T09:35:21;5.65;;;2.90;;
37459;SDS011;23318;50.966;5.284;2023-02-28T09:37:49;5.63;;;2.58;;
37459;SDS011;23318;50.966;5.284;2023-02-28T09:40:17;4.75;;;2.28;;
37459;SDS011;23318;50.966;5.284;2023-02-28T09:42:48;7.43;;;2.60;;
37459;SDS011;23318;50.966;5.284;2023-02-28T09:45:33;6.13;;;3.42;;
37459;SDS011;23318;50.966;5.284;2023-02-28T09:48:24;4.85;;;2.30;;
37459;SDS011;23318;50.966;5.284;2023-02-28T09:50:59;4.47;;;1.50;;
37459;SDS011;23318;50.966;5.284;2023-02-28T09:53:29;7.63;;;1.98;;
37459;SDS011;23318;50.966;5.284;2023-02-28T09:56:02;8.43;;;2.05;;
37459;SDS011;23318;50.966;5.284;2023-02-28T09:58:35;2.40;;;1.55;;
37459;SDS011;23318;50.966;5.284;2023-02-28T10:01:09;4.00;;;1.80;;
37459;SDS011;23318;50.966;5.284;2023-02-28T10:03:46;6.63;;;2.03;;
37459;SDS011;23318;50.966;5.284;2023-02-28T10:06:18;3.25;;;1.80;;
37459;SDS011;23318;50.966;5.284;2023-02-28T10:08:56;3.70;;;2.35;;
37459;SDS011;23318;50.966;5.284;2023-02-28T10:11:26;3.20;;;2.05;;
37459;SDS011;23318;50.966;5.284;2023-02-28T10:14:39;4.32;;;2.10;;
37459;SDS011;23318;50.966;5.284;2023-02-28T10:19:22;12.88;;;2.13;;
37459;SDS011;23318;50.966;5.284;2023-02-28T10:21:59;22.40;;;2.72;;
37459;SDS011;23318;50.966;5.284;2023-02-28T10:27:15;9.77;;;2.20;;
37459;SDS011;23318;50.966;5.284;2023-02-28T10:32:11;11.55;;;2.35;;
37459;SDS011;23318;50.966;5.284;2023-02-28T10:34:41;28.77;;;2.97;;
37459;SDS011;23318;50.966;5.284;2023-02-28T10:37:07;22.63;;;3.10;;
37459;SDS011;23318;50.966;5.284;2023-02-28T10:42:26;6.65;;;2.10;;
37459;SDS011;23318;50.966;5.284;2023-02-28T10:45:09;16.83;;;2.60;;
37459;SDS011;23318;50.966;5.284;2023-02-28T10:47:35;4.35;;;1.67;;
37459;SDS011;23318;50.966;5.284;2023-02-28T10:55:56;10.65;;;2.22;;
37459;SDS011;23318;50.966;5.284;2023-02-28T10:58:56;7.97;;;1.75;;
37459;SDS011;23318;50.966;5.284;2023-02-28T11:03:55;7.22;;;2.00;;
37459;SDS011;23318;50.966;5.284;2023-02-28T11:06:23;7.53;;;1.70;;
37459;SDS011;23318;50.966;5.284;2023-02-28T11:09:27;8.85;;;1.80;;
37459;SDS011;23318;50.966;5.284;2023-02-28T11:11:50;16.58;;;2.58;;
37459;SDS011;23318;50.966;5.284;2023-02-28T11:14:22;3.40;;;1.35;;
37459;SDS011;23318;50.966;5.284;2023-02-28T11:16:51;3.50;;;1.80;;
37459;SDS011;23318;50.966;5.284;2023-02-28T11:19:20;3.65;;;1.52;;
37459;SDS011;23318;50.966;5.284;2023-02-28T11:21:55;10.27;;;2.53;;
37459;SDS011;23318;50.966;5.284;2023-02-28T11:26:52;7.35;;;2.15;;
37459;SDS011;23318;50.966;5.284;2023-02-28T11:29:29;8.38;;;2.40;;
37459;SDS011;23318;50.966;5.284;2023-02-28T11:34:40;7.03;;;1.95;;
37459;SDS011;23318;50.966;5.284;2023-02-28T11:37:26;2.72;;;1.67;;
37459;SDS011;23318;50.966;5.284;2023-02-28T11:39:53;3.10;;;1.67;;
37459;SDS011;23318;50.966;5.284;2023-02-28T11:47:44;3.55;;;1.75;;
37459;SDS011;23318;50.966;5.284;2023-02-28T11:52:53;3.80;;;1.63;;
37459;SDS011;23318;50.966;5.284;2023-02-28T11:55:23;8.57;;;1.90;;
37459;SDS011;23318;50.966;5.284;2023-02-28T11:58:40;3.97;;;1.55;;
37459;SDS011;23318;50.966;5.284;2023-02-28T12:04:08;7.93;;;1.90;;
37459;SDS011;23318;50.966;5.284;2023-02-28T12:28:30;3.42;;;1.73;;
37459;SDS011;23318;50.966;5.284;2023-02-28T12:33:33;6.05;;;2.08;;
37459;SDS011;23318;50.966;5.284;2023-02-28T12:36:04;10.15;;;2.22;;
37459;SDS011;23318;50.966;5.284;2023-02-28T12:38:43;28.13;;;3.58;;
37459;SDS011;23318;50.966;5.284;2023-02-28T12:41:19;7.00;;;1.75;;
37459;SDS011;23318;50.966;5.284;2023-02-28T12:44:02;8.75;;;2.05;;
37459;SDS011;23318;50.966;5.284;2023-02-28T12:46:34;7.38;;;2.10;;
37459;SDS011;23318;50.966;5.284;2023-02-28T12:49:08;2.30;;;1.63;;
37459;SDS011;23318;50.966;5.284;2023-02-28T12:51:39;5.85;;;2.10;;
37459;SDS011;23318;50.966;5.284;2023-02-28T12:56:54;11.45;;;2.55;;
37459;SDS011;23318;50.966;5.284;2023-02-28T12:59:34;16.55;;;2.30;;
37459;SDS011;23318;50.966;5.284;2023-02-28T13:03:07;6.85;;;2.00;;
37459;SDS011;23318;50.966;5.284;2023-02-28T13:10:55;3.67;;;2.13;;
37459;SDS011;23318;50.966;5.284;2023-02-28T13:13:25;5.07;;;1.90;;
37459;SDS011;23318;50.966;5.284;2023-02-28T13:15:57;5.07;;;2.28;;
37459;SDS011;23318;50.966;5.284;2023-02-28T13:18:41;13.38;;;2.40;;
37459;SDS011;23318;50.966;5.284;2023-02-28T13:21:10;9.80;;;1.90;;
37459;SDS011;23318;50.966;5.284;2023-02-28T13:26:21;2.13;;;1.80;;
37459;SDS011;23318;50.966;5.284;2023-02-28T13:34:36;11.77;;;2.30;;
37459;SDS011;23318;50.966;5.284;2023-02-28T13:39:49;6.57;;;3.28;;
37459;SDS011;23318;50.966;5.284;2023-02-28T13:47:42;6.22;;;2.63;;
37459;SDS011;23318;50.966;5.284;2023-02-28T13:50:29;4.47;;;1.60;;
37459;SDS011;23318;50.966;5.284;2023-02-28T13:53:19;2.50;;;2.25;;
37459;SDS011;23318;50.966;5.284;2023-02-28T13:58:54;5.53;;;1.95;;
37459;SDS011;23318;50.966;5.284;2023-02-28T14:07:00;7.00;;;2.55;;
37459;SDS011;23318;50.966;5.284;2023-02-28T14:09:29;4.80;;;1.83;;
37459;SDS011;23318;50.966;5.284;2023-02-28T14:12:24;20.88;;;3.92;;
37459;SDS011;23318;50.966;5.284;2023-02-28T14:15:02;5.28;;;2.35;;
37459;SDS011;23318;50.966;5.284;2023-02-28T14:17:30;2.58;;;2.30;;
37459;SDS011;23318;50.966;5.284;2023-02-28T14:19:57;3.70;;;2.10;;
37459;SDS011;23318;50.966;5.284;2023-02-28T14:22:37;3.78;;;2.10;;
37459;SDS011;23318;50.966;5.284;2023-02-28T14:27:56;6.90;;;2.22;;
37459;SDS011;23318;50.966;5.284;2023-02-28T14:36:24;5.75;;;2.15;;
37459;SDS011;23318;50.966;5.284;2023-02-28T14:38:57;4.03;;;2.10;;
37459;SDS011;23318;50.966;5.284;2023-02-28T14:41:36;2.55;;;1.77;;
37459;SDS011;23318;50.966;5.284;2023-02-28T14:46:47;4.30;;;2.00;;
37459;SDS011;23318;50.966;5.284;2023-02-28T14:49:34;4.15;;;2.30;;
37459;SDS011;23318;50.966;5.284;2023-02-28T14:52:07;3.10;;;1.95;;
37459;SDS011;23318;50.966;5.284;2023-02-28T14:54:42;4.32;;;2.13;;
37459;SDS011;23318;50.966;5.284;2023-02-28T14:57:23;6.78;;;1.95;;
37459;SDS011;23318;50.966;5.284;2023-02-28T14:59:56;6.70;;;1.90;;
37459;SDS011;23318;50.966;5.284;2023-02-28T15:02:36;2.63;;;1.80;;
37459;SDS011;23318;50.966;5.284;2023-02-28T15:07:44;2.60;;;1.92;;
37459;SDS011;23318;50.966;5.284;2023-02-28T15:12:46;3.80;;;1.98;;
37459;SDS011;23318;50.966;5.284;2023-02-28T15:15:25;2.58;;;1.52;;
37459;SDS011;23318;50.966;5.284;2023-02-28T15:18:00;11.75;;;2.45;;
37459;SDS011;23318;50.966;5.284;2023-02-28T15:20:29;3.63;;;2.00;;
37459;SDS011;23318;50.966;5.284;2023-02-28T15:22:57;3.97;;;2.28;;
37459;SDS011;23318;50.966;5.284;2023-02-28T15:25:24;2.78;;;1.98;;
37459;SDS011;23318;50.966;5.284;2023-02-28T15:27:54;4.63;;;2.28;;
37459;SDS011;23318;50.966;5.284;2023-02-28T15:30:26;5.18;;;1.98;;
37459;SDS011;23318;50.966;5.284;2023-02-28T15:33:04;4.57;;;2.28;;
37459;SDS011;23318;50.966;5.284;2023-02-28T15:35:33;3.15;;;1.98;;
37459;SDS011;23318;50.966;5.284;2023-02-28T15:38:03;4.93;;;2.10;;
37459;SDS011;23318;50.966;5.284;2023-02-28T15:40:53;6.18;;;2.33;;
37459;SDS011;23318;50.966;5.284;2023-02-28T15:45:56;5.40;;;1.80;;
37459;SDS011;23318;50.966;5.284;2023-02-28T15:48:28;3.63;;;1.92;;
37459;SDS011;23318;50.966;5.284;2023-02-28T15:53:32;3.55;;;1.63;;
37459;SDS011;23318;50.966;5.284;2023-02-28T15:56:03;3.10;;;2.00;;
37459;SDS011;23318;50.966;5.284;2023-02-28T15:58:32;4.78;;;2.13;;
37459;SDS011;23318;50.966;5.284;2023-02-28T16:06:37;3.60;;;1.92;;
37459;SDS011;23318;50.966;5.284;2023-02-28T16:09:16;3.40;;;1.90;;
37459;SDS011;23318;50.966;5.284;2023-02-28T16:11:48;3.80;;;1.90;;
37459;SDS011;23318;50.966;5.284;2023-02-28T16:14:21;4.35;;;2.22;;
37459;SDS011;23318;50.966;5.284;2023-02-28T16:16:53;4.60;;;2.30;;
37459;SDS011;23318;50.966;5.284;2023-02-28T16:19:20;3.05;;;2.40;;
37459;SDS011;23318;50.966;5.284;2023-02-28T16:21:46;3.20;;;1.70;;
37459;SDS011;23318;50.966;5.284;2023-02-28T16:24:12;5.68;;;1.83;;
37459;SDS011;23318;50.966;5.284;2023-02-28T16:26:39;3.60;;;2.28;;
37459;SDS011;23318;50.966;5.284;2023-02-28T16:29:06;2.70;;;2.10;;
37459;SDS011;23318;50.966;5.284;2023-02-28T16:31:35;3.40;;;2.20;;
37459;SDS011;23318;50.966;5.284;2023-02-28T16:34:03;5.28;;;2.45;;
37459;SDS011;23318;50.966;5.284;2023-02-28T16:36:29;5.15;;;2.42;;
37459;SDS011;23318;50.966;5.284;2023-02-28T16:38:56;5.17;;;2.30;;
37459;SDS011;23318;50.966;5.284;2023-02-28T16:41:22;6.55;;;2.45;;
37459;SDS011;23318;50.966;5.284;2023-02-28T16:43:51;4.28;;;2.35;;
37459;SDS011;23318;50.966;5.284;2023-02-28T16:46:30;4.88;;;2.42;;
37459;SDS011;23318;50.966;5.284;2023-02-28T16:48:58;3.15;;;2.28;;
37459;SDS011;23318;50.966;5.284;2023-02-28T16:51:24;5.15;;;3.25;;
37459;SDS011;23318;50.966;5.284;2023-02-28T16:53:49;3.83;;;2.20;;
37459;SDS011;23318;50.966;5.284;2023-02-28T16:56:19;3.90;;;2.25;;
37459;SDS011;23318;50.966;5.284;2023-02-28T16:58:48;5.63;;;2.72;;
37459;SDS011;23318;50.966;5.284;2023-02-28T17:01:14;5.72;;;2.72;;
37459;SDS011;23318;50.966;5.284;2023-02-28T17:03:41;2.30;;;2.05;;
37459;SDS011;23318;50.966;5.284;2023-02-28T17:06:20;6.07;;;2.15;;
37459;SDS011;23318;50.966;5.284;2023-02-28T17:08:52;3.92;;;2.05;;
37459;SDS011;23318;50.966;5.284;2023-02-28T17:11:19;6.30;;;2.83;;
37459;SDS011;23318;50.966;5.284;2023-02-28T17:13:45;3.78;;;2.47;;
37459;SDS011;23318;50.966;5.284;2023-02-28T17:18:54;3.22;;;2.25;;
37459;SDS011;23318;50.966;5.284;2023-02-28T17:21:23;3.80;;;2.67;;
37459;SDS011;23318;50.966;5.284;2023-02-28T17:23:49;4.60;;;2.30;;
37459;SDS011;23318;50.966;5.284;2023-02-28T17:26:16;3.47;;;2.60;;
37459;SDS011;23318;50.966;5.284;2023-02-28T17:28:45;8.95;;;3.25;;
37459;SDS011;23318;50.966;5.284;2023-02-28T17:31:11;5.53;;;2.53;;
37459;SDS011;23318;50.966;5.284;2023-02-28T17:33:37;3.72;;;2.05;;
37459;SDS011;23318;50.966;5.284;2023-02-28T17:36:03;4.28;;;2.58;;
37459;SDS011;23318;50.966;5.284;2023-02-28T17:38:29;5.10;;;3.08;;
37459;SDS011;23318;50.966;5.284;2023-02-28T17:40:55;6.32;;;3.92;;